createdAt,value
2019-01-03T00:01:08.176Z,32.60
2019-01-03T00:03:37.401Z,32.40
2019-01-03T00:06:22.834Z,32.20
2019-01-03T00:08:57.957Z,32.20
2019-01-03T00:11:42.435Z,32.10
2019-01-03T00:14:26.651Z,32.00
2019-01-03T00:17:12.297Z,32.00
2019-01-03T00:19:59.768Z,31.90
2019-01-03T00:22:38.008Z,31.80
2019-01-03T00:25:23.381Z,31.60
2019-01-03T00:28:01.689Z,31.60
2019-01-03T00:30:39.671Z,31.60
2019-01-03T00:33:15.017Z,31.50
2019-01-03T00:35:50.002Z,31.50
2019-01-03T00:38:28.170Z,31.40
2019-01-03T00:41:03.377Z,31.40
2019-01-03T00:43:35.264Z,31.40
2019-01-03T00:46:04.531Z,31.20
2019-01-03T00:48:42.807Z,31.40
2019-01-03T00:51:12.054Z,31.30
2019-01-03T00:53:53.276Z,31.30
2019-01-03T00:56:22.589Z,31.30
2019-01-03T00:58:57.725Z,31.30
2019-01-03T01:01:38.896Z,31.10
2019-01-03T01:04:26.337Z,31.20
2019-01-03T01:06:55.638Z,31.10
2019-01-03T01:09:33.902Z,31.20
2019-01-03T01:12:08.567Z,31.20
2019-01-03T01:14:37.881Z,31.10
2019-01-03T01:17:22.069Z,31.10
2019-01-03T01:19:54.367Z,31.10
2019-01-03T01:22:39.787Z,31.10
2019-01-03T01:25:20.883Z,30.90
2019-01-03T01:27:50.227Z,30.90
2019-01-03T01:30:35.629Z,30.90
2019-01-03T01:33:21.303Z,31.00
2019-01-03T01:35:59.850Z,30.90
2019-01-03T01:38:34.853Z,30.90
2019-01-03T01:41:04.225Z,30.90
2019-01-03T01:43:49.602Z,30.70
2019-01-03T01:46:18.966Z,30.90
2019-01-03T01:48:54.023Z,30.80
2019-01-03T01:51:35.488Z,30.90
2019-01-03T01:54:13.861Z,30.70
2019-01-03T01:56:43.241Z,30.60
2019-01-03T01:59:28.783Z,30.70
2019-01-03T02:02:00.759Z,30.60
2019-01-03T02:04:33.147Z,30.50
2019-01-03T02:07:05.029Z,30.40
2019-01-03T02:09:50.321Z,30.60
2019-01-03T02:12:31.797Z,30.50
2019-01-03T02:15:01.077Z,30.50
2019-01-03T02:17:30.391Z,30.40
2019-01-03T02:20:02.588Z,30.40
2019-01-03T02:22:34.585Z,31.10
2019-01-03T02:25:12.972Z,30.40
2019-01-03T02:27:51.358Z,30.30
2019-01-03T02:30:36.488Z,30.30
2019-01-03T02:33:22.106Z,30.30
2019-01-03T02:36:03.011Z,30.10
2019-01-03T02:38:32.404Z,30.10
2019-01-03T02:41:17.991Z,30.10
2019-01-03T02:44:03.709Z,30.10
2019-01-03T02:46:38.955Z,30.10
2019-01-03T02:49:11.018Z,30.10
2019-01-03T02:51:43.251Z,30.00
2019-01-03T02:54:29.028Z,30.00
2019-01-03T02:57:14.699Z,30.00
2019-01-03T02:59:44.025Z,30.00
2019-01-03T03:02:29.440Z,30.00
2019-01-03T03:05:14.565Z,30.00
2019-01-03T03:07:43.905Z,30.00
2019-01-03T03:10:13.183Z,30.00
2019-01-03T03:12:42.479Z,30.00
2019-01-03T03:15:11.697Z,30.00
2019-01-03T03:17:59.049Z,30.00
2019-01-03T03:20:33.787Z,30.00
2019-01-03T03:23:03.096Z,29.90
2019-01-03T03:25:32.395Z,29.90
2019-01-03T03:28:01.689Z,30.00
2019-01-03T03:30:30.947Z,30.00
2019-01-03T03:33:00.239Z,30.00
2019-01-03T03:35:45.624Z,30.00
2019-01-03T03:38:32.901Z,29.90
2019-01-03T03:41:13.711Z,30.00
2019-01-03T03:43:48.866Z,29.90
2019-01-03T03:46:30.451Z,29.90
2019-01-03T03:49:05.705Z,30.00
2019-01-03T03:51:51.218Z,29.90
2019-01-03T03:54:36.537Z,30.00
2019-01-03T03:57:21.992Z,29.90
2019-01-03T03:59:54.038Z,29.90
2019-01-03T04:02:26.307Z,29.90
2019-01-03T04:04:58.340Z,29.90
2019-01-03T04:07:36.448Z,29.80
2019-01-03T04:10:11.988Z,29.80
2019-01-03T04:12:56.413Z,29.80
2019-01-03T04:15:37.546Z,29.70
2019-01-03T04:18:15.824Z,29.80
2019-01-03T04:21:01.278Z,29.80
2019-01-03T04:23:30.585Z,29.80
2019-01-03T04:26:08.827Z,29.80
2019-01-03T04:28:54.114Z,29.90
2019-01-03T04:31:39.852Z,29.80
2019-01-03T04:34:18.192Z,29.80
2019-01-03T04:37:03.655Z,29.70
2019-01-03T04:39:49.065Z,29.80
2019-01-03T04:42:34.952Z,29.70
2019-01-03T04:45:10.158Z,29.70
2019-01-03T04:47:39.456Z,29.70
2019-01-03T04:50:11.736Z,29.70
2019-01-03T04:52:55.674Z,29.70
2019-01-03T04:55:27.727Z,29.70
2019-01-03T04:58:06.130Z,29.70
2019-01-03T05:00:51.880Z,30.20
2019-01-03T05:03:39.102Z,29.70
2019-01-03T05:06:16.960Z,29.60
2019-01-03T05:09:02.538Z,29.60
2019-01-03T05:11:34.763Z,29.60
2019-01-03T05:14:04.038Z,29.60
2019-01-03T05:16:42.087Z,29.60
2019-01-03T05:19:11.443Z,29.60
2019-01-03T05:21:40.715Z,29.70
2019-01-03T05:24:10.049Z,29.60
2019-01-03T05:26:55.444Z,29.70
2019-01-03T05:29:27.448Z,29.50
2019-01-03T05:31:59.652Z,29.60
2019-01-03T05:34:28.900Z,29.50
2019-01-03T05:37:10.213Z,29.60
2019-01-03T05:39:44.947Z,29.60
2019-01-03T05:42:20.063Z,29.50
2019-01-03T05:44:49.376Z,29.60
2019-01-03T05:47:21.640Z,29.50
2019-01-03T05:49:53.431Z,29.50
2019-01-03T05:52:38.844Z,29.50
2019-01-03T05:55:24.237Z,29.50
2019-01-03T05:57:53.478Z,29.50
2019-01-03T06:00:31.953Z,29.50
2019-01-03T06:03:01.281Z,29.50
2019-01-03T06:05:46.692Z,29.50
2019-01-03T06:08:18.786Z,29.50
2019-01-03T06:10:48.033Z,29.40
2019-01-03T06:13:26.393Z,29.50
2019-01-03T06:15:55.743Z,29.40
2019-01-03T06:18:28.165Z,29.50
2019-01-03T06:21:13.627Z,29.40
2019-01-03T06:23:57.859Z,29.40
2019-01-03T06:26:45.246Z,29.40
2019-01-03T06:29:30.869Z,29.40
2019-01-03T06:32:16.024Z,29.40
2019-01-03T06:34:45.362Z,29.40
2019-01-03T06:37:17.564Z,29.30
2019-01-03T06:39:58.665Z,29.50
2019-01-03T06:42:27.968Z,29.40
2019-01-03T06:45:13.423Z,29.60
2019-01-03T06:47:48.643Z,29.60
2019-01-03T06:50:33.933Z,29.70
2019-01-03T06:53:09.001Z,29.70
2019-01-03T06:55:44.169Z,29.80
2019-01-03T06:58:19.367Z,29.80
2019-01-03T07:00:48.609Z,29.80
2019-01-03T07:03:26.848Z,30.30
2019-01-03T07:06:04.803Z,29.80
2019-01-03T07:08:50.243Z,29.80
2019-01-03T07:11:37.367Z,30.10
2019-01-03T07:14:22.772Z,39.60
2019-01-03T07:16:54.732Z,34.80
2019-01-03T07:19:24.061Z,33.80
2019-01-03T07:22:08.255Z,33.80
2019-01-03T07:24:43.439Z,33.90
2019-01-03T07:27:12.740Z,45.90
2019-01-03T07:29:44.467Z,39.70
2019-01-03T07:32:13.723Z,36.10
2019-01-03T07:34:43.097Z,34.90
2019-01-03T07:37:15.035Z,33.90
2019-01-03T07:39:44.293Z,33.80
2019-01-03T07:42:16.329Z,33.70
2019-01-03T07:45:03.646Z,33.60
2019-01-03T07:47:32.953Z,32.30
2019-01-03T07:50:10.953Z,32.70
2019-01-03T07:52:56.811Z,31.40
2019-01-03T07:55:26.140Z,30.00
2019-01-03T07:57:55.389Z,28.70
2019-01-03T08:00:40.929Z,28.60
2019-01-03T08:03:19.311Z,28.60
2019-01-03T08:06:04.753Z,28.50
2019-01-03T08:08:52.241Z,28.50
2019-01-03T08:11:30.343Z,27.90
2019-01-03T08:13:59.593Z,27.80
2019-01-03T08:16:46.783Z,28.10
2019-01-03T08:19:32.480Z,28.20
2019-01-03T08:22:16.681Z,28.50
2019-01-03T08:24:51.789Z,27.70
2019-01-03T08:27:37.495Z,27.20
2019-01-03T08:30:13.719Z,28.70
2019-01-03T08:33:00.900Z,28.80
2019-01-03T08:35:33.034Z,29.50
2019-01-03T08:38:18.494Z,29.40
2019-01-03T08:41:02.362Z,30.00
2019-01-03T08:43:34.379Z,30.40
2019-01-03T08:46:21.581Z,31.00
2019-01-03T08:49:00.530Z,31.10
2019-01-03T08:51:33.741Z,31.80
2019-01-03T08:54:08.764Z,31.80
2019-01-03T08:56:50.032Z,31.80
2019-01-03T08:59:19.333Z,31.70
2019-01-03T09:02:03.510Z,29.90
2019-01-03T09:04:35.837Z,28.50
2019-01-03T09:07:21.253Z,28.50
2019-01-03T09:10:02.374Z,28.50
2019-01-03T09:12:31.719Z,27.90
2019-01-03T09:15:16.047Z,27.60
2019-01-03T09:17:53.965Z,27.60
2019-01-03T09:20:40.986Z,26.80
2019-01-03T09:23:26.361Z,27.30
2019-01-03T09:26:04.503Z,28.40
2019-01-03T09:28:48.925Z,28.50
2019-01-03T09:31:27.050Z,28.50
2019-01-03T09:34:05.223Z,28.50
2019-01-03T09:36:46.483Z,28.60
2019-01-03T09:39:27.695Z,28.90
2019-01-03T09:42:09.257Z,29.40
2019-01-03T09:44:45.994Z,30.20
2019-01-03T09:47:13.739Z,29.50
2019-01-03T09:49:41.440Z,28.50
2019-01-03T09:52:09.490Z,28.60
2019-01-03T09:54:37.413Z,28.60
2019-01-03T09:57:05.157Z,29.30
2019-01-03T09:59:32.815Z,29.50
2019-01-03T10:02:00.444Z,30.00
2019-01-03T10:04:28.197Z,30.00
2019-01-03T10:06:55.927Z,30.20
2019-01-03T10:09:23.544Z,31.00
2019-01-03T10:11:51.185Z,31.20
2019-01-03T10:14:18.769Z,31.50
2019-01-03T10:16:46.387Z,31.80
2019-01-03T10:19:14.072Z,32.40
2019-01-03T10:21:41.718Z,32.00
2019-01-03T10:24:09.318Z,32.30
2019-01-03T10:26:37.041Z,32.10
2019-01-03T10:29:04.730Z,32.40
2019-01-03T10:31:32.423Z,32.20
2019-01-03T10:34:00.146Z,32.90
2019-01-03T10:36:27.778Z,33.00
2019-01-03T10:38:55.444Z,33.10
2019-01-03T10:41:23.077Z,33.10
2019-01-03T10:43:50.713Z,33.40
2019-01-03T10:46:18.434Z,33.30
2019-01-03T10:48:46.057Z,33.80
2019-01-03T10:51:13.776Z,33.80
2019-01-03T10:53:41.479Z,33.90
2019-01-03T10:56:09.074Z,33.90
2019-01-03T10:58:36.674Z,32.90
2019-01-03T11:01:04.346Z,31.80
2019-01-03T11:03:32.026Z,29.80
2019-01-03T11:05:59.737Z,29.10
2019-01-03T11:08:27.354Z,28.90
2019-01-03T11:10:55.059Z,28.40
2019-01-03T11:13:22.669Z,28.40
2019-01-03T11:15:50.350Z,28.40
2019-01-03T11:18:18.039Z,28.40
2019-01-03T11:20:45.739Z,28.40
2019-01-03T11:23:13.396Z,28.30
2019-01-03T11:25:41.098Z,28.40
2019-01-03T11:28:08.843Z,28.40
2019-01-03T11:30:36.499Z,28.40
2019-01-03T11:33:05.436Z,28.50
2019-01-03T11:35:33.138Z,28.30
2019-01-03T11:38:00.812Z,28.90
2019-01-03T11:40:28.532Z,29.10
2019-01-03T11:42:56.246Z,29.20
2019-01-03T11:45:23.898Z,29.30
2019-01-03T11:47:51.580Z,29.50
2019-01-03T11:50:19.329Z,29.60
2019-01-03T11:52:47.053Z,29.70
2019-01-03T11:55:14.699Z,29.80
2019-01-03T11:57:42.468Z,29.80
2019-01-03T12:00:10.615Z,29.80
2019-01-03T12:02:38.272Z,29.90
2019-01-03T12:05:06.788Z,30.00
2019-01-03T12:07:34.491Z,30.00
2019-01-03T12:10:02.235Z,30.00
2019-01-03T12:12:29.946Z,30.00
2019-01-03T12:14:57.754Z,30.00
2019-01-03T12:17:25.462Z,30.10
2019-01-03T12:19:53.146Z,30.90
2019-01-03T12:22:20.856Z,30.30
2019-01-03T12:24:48.478Z,30.30
2019-01-03T12:27:16.211Z,30.30
2019-01-03T12:29:43.874Z,30.40
2019-01-03T12:32:11.547Z,30.60
2019-01-03T12:34:39.194Z,30.60
2019-01-03T12:37:06.812Z,31.30
2019-01-03T12:39:34.544Z,30.60
2019-01-03T12:42:02.307Z,30.30
2019-01-03T12:44:29.964Z,30.40
2019-01-03T12:46:57.651Z,30.60
2019-01-03T12:49:25.324Z,30.60
2019-01-03T12:51:52.993Z,30.60
2019-01-03T12:54:20.684Z,30.70
2019-01-03T12:56:48.382Z,30.80
2019-01-03T12:59:16.055Z,31.30
2019-01-03T13:01:43.814Z,31.20
2019-01-03T13:04:11.421Z,31.40
2019-01-03T13:06:39.099Z,31.40
2019-01-03T13:09:08.498Z,31.50
2019-01-03T13:11:36.244Z,31.40
2019-01-03T13:14:03.976Z,31.40
2019-01-03T13:16:31.794Z,31.10
2019-01-03T13:18:59.429Z,29.90
2019-01-03T13:21:27.087Z,29.10
2019-01-03T13:23:54.719Z,28.30
2019-01-03T13:26:22.433Z,28.20
2019-01-03T13:28:50.146Z,28.30
2019-01-03T13:31:17.827Z,28.30
2019-01-03T13:33:45.505Z,28.30
2019-01-03T13:36:13.198Z,28.30
2019-01-03T13:38:40.786Z,28.20
2019-01-03T13:41:08.413Z,28.30
2019-01-03T13:43:36.067Z,28.20
2019-01-03T13:46:03.667Z,28.20
2019-01-03T13:48:31.275Z,28.20
2019-01-03T13:50:58.993Z,28.20
2019-01-03T13:53:26.637Z,28.20
2019-01-03T13:55:54.331Z,28.30
2019-01-03T13:58:22.103Z,28.20
2019-01-03T14:00:49.715Z,28.20
2019-01-03T14:03:18.474Z,28.20
2019-01-03T14:05:46.143Z,28.20
2019-01-03T14:08:13.819Z,28.20
2019-01-03T14:10:41.668Z,28.00
2019-01-03T14:13:09.279Z,28.20
2019-01-03T14:15:36.901Z,28.10
2019-01-03T14:18:04.601Z,28.20
2019-01-03T14:20:32.247Z,27.80
2019-01-03T14:22:59.991Z,28.00
2019-01-03T14:25:27.603Z,27.90
2019-01-03T14:27:55.210Z,27.90
2019-01-03T14:30:22.908Z,28.20
2019-01-03T14:32:50.619Z,28.20
2019-01-03T14:35:18.297Z,28.20
2019-01-03T14:37:46.025Z,28.20
2019-01-03T14:40:13.661Z,28.20
2019-01-03T14:42:41.385Z,28.20
2019-01-03T14:45:09.090Z,28.30
2019-01-03T14:47:36.765Z,28.20
2019-01-03T14:50:05.458Z,28.20
2019-01-03T14:52:33.135Z,28.30
2019-01-03T14:55:00.773Z,28.20
2019-01-03T14:57:28.387Z,28.20
2019-01-03T14:59:56.132Z,28.20
2019-01-03T15:02:23.805Z,28.20
2019-01-03T15:04:51.498Z,28.20
2019-01-03T15:07:19.207Z,28.30
2019-01-03T15:09:46.848Z,28.30
2019-01-03T15:12:14.505Z,28.30
2019-01-03T15:14:42.244Z,28.20
2019-01-03T15:17:10.348Z,28.30
2019-01-03T15:19:38.171Z,28.30
2019-01-03T15:22:05.855Z,28.20
2019-01-03T15:24:33.488Z,28.20
2019-01-03T15:27:01.183Z,28.20
2019-01-03T15:29:28.868Z,28.20
2019-01-03T15:31:56.530Z,28.20
2019-01-03T15:34:24.315Z,28.20
2019-01-03T15:36:51.917Z,28.20
2019-01-03T15:39:19.558Z,28.20
2019-01-03T15:41:47.382Z,28.20
2019-01-03T15:44:15.056Z,28.20
2019-01-03T15:46:42.678Z,28.20
2019-01-03T15:49:10.396Z,28.20
2019-01-03T15:51:38.116Z,28.20
2019-01-03T15:54:05.800Z,28.20
2019-01-03T15:56:33.486Z,28.20
2019-01-03T15:59:01.388Z,28.20
2019-01-03T16:01:29.143Z,28.20
2019-01-03T16:03:56.875Z,28.20
2019-01-03T16:06:24.540Z,28.20
2019-01-03T16:08:52.242Z,28.20
2019-01-03T16:11:19.871Z,28.20
2019-01-03T16:13:47.626Z,28.20
2019-01-03T16:16:15.302Z,28.20
2019-01-03T16:18:42.899Z,28.10
2019-01-03T16:21:10.630Z,28.20
2019-01-03T16:23:38.311Z,28.20
2019-01-03T16:26:05.926Z,28.20
2019-01-03T16:28:33.606Z,28.20
2019-01-03T16:31:01.207Z,28.20
2019-01-03T16:33:28.867Z,28.20
2019-01-03T16:35:56.474Z,28.20
2019-01-03T16:38:24.074Z,28.20
2019-01-03T16:40:51.850Z,28.20
2019-01-03T16:43:19.422Z,28.30
2019-01-03T16:45:47.011Z,28.20
2019-01-03T16:48:14.744Z,28.20
2019-01-03T16:50:42.342Z,28.20
2019-01-03T16:53:10.060Z,28.20
2019-01-03T16:55:37.787Z,28.20
2019-01-03T16:58:05.484Z,28.20
2019-01-03T17:00:33.144Z,28.20
2019-01-03T17:03:00.759Z,28.20
2019-01-03T17:05:28.422Z,28.20
2019-01-03T17:07:56.058Z,28.20
2019-01-03T17:10:23.683Z,28.20
2019-01-03T17:12:51.416Z,28.20
2019-01-03T17:15:19.066Z,28.30
2019-01-03T17:17:46.684Z,28.20
2019-01-03T17:20:14.438Z,28.20
2019-01-03T17:22:42.095Z,28.30
2019-01-03T17:25:10.145Z,28.30
2019-01-03T17:27:37.897Z,28.30
2019-01-03T17:30:06.867Z,28.30
2019-01-03T17:32:34.553Z,28.30
2019-01-03T17:35:02.212Z,28.30
2019-01-03T17:37:29.998Z,28.30
2019-01-03T17:39:57.619Z,28.30
2019-01-03T17:42:25.288Z,28.90
2019-01-03T17:44:53.008Z,29.40
2019-01-03T17:47:20.607Z,29.20
2019-01-03T17:49:48.187Z,29.00
2019-01-03T17:52:15.881Z,28.60
2019-01-03T17:54:43.579Z,28.30
2019-01-03T17:57:11.190Z,28.30
2019-01-03T17:59:38.850Z,28.30
2019-01-03T18:02:06.837Z,28.30
2019-01-03T18:04:34.466Z,28.20
2019-01-03T18:07:02.220Z,28.20
2019-01-03T18:09:29.919Z,28.30
2019-01-03T18:11:57.615Z,28.20
2019-01-03T18:14:25.357Z,28.20
2019-01-03T18:16:53.055Z,27.80
2019-01-03T18:19:20.745Z,27.20
2019-01-03T18:21:48.525Z,26.50
2019-01-03T18:24:16.166Z,26.90
2019-01-03T18:26:43.924Z,26.80
2019-01-03T18:29:11.622Z,26.40
2019-01-03T18:31:39.278Z,28.40
2019-01-03T18:34:07.035Z,28.00
2019-01-03T18:36:34.684Z,28.20
2019-01-03T18:39:02.514Z,28.20
2019-01-03T18:41:30.160Z,28.30
2019-01-03T18:43:57.801Z,28.40
2019-01-03T18:46:25.407Z,28.30
2019-01-03T18:48:54.394Z,28.30
2019-01-03T18:51:22.060Z,28.30
2019-01-03T18:53:49.751Z,28.40
2019-01-03T18:56:17.477Z,28.40
2019-01-03T18:58:45.106Z,28.40
2019-01-03T19:01:12.723Z,28.40
2019-01-03T19:03:40.454Z,28.40
2019-01-03T19:06:08.191Z,28.40
2019-01-03T19:08:35.843Z,28.40
2019-01-03T19:11:03.516Z,28.40
2019-01-03T19:13:31.359Z,28.40
2019-01-03T19:15:59.270Z,28.40
2019-01-03T19:18:26.938Z,28.40
2019-01-03T19:20:54.581Z,28.40
2019-01-03T19:23:22.667Z,28.40
2019-01-03T19:25:50.402Z,28.40
2019-01-03T19:28:18.067Z,28.40
2019-01-03T19:30:45.734Z,28.40
2019-01-03T19:33:13.509Z,28.40
2019-01-03T19:35:41.204Z,28.30
2019-01-03T19:38:08.889Z,28.40
2019-01-03T19:40:38.325Z,28.80
2019-01-03T19:43:06.035Z,28.90
2019-01-03T19:45:33.758Z,29.00
2019-01-03T19:48:01.472Z,29.10
2019-01-03T19:50:29.101Z,29.30
2019-01-03T19:52:56.832Z,29.40
2019-01-03T19:55:24.440Z,29.50
2019-01-03T19:57:52.127Z,29.40
2019-01-03T20:00:19.837Z,29.60
2019-01-03T20:02:47.481Z,29.60
2019-01-03T20:05:15.385Z,30.00
2019-01-03T20:07:43.086Z,29.60
2019-01-03T20:10:11.513Z,29.70
2019-01-03T20:12:39.277Z,29.80
2019-01-03T20:15:08.377Z,29.80
2019-01-03T20:17:36.051Z,29.90
2019-01-03T20:20:04.111Z,29.90
2019-01-03T20:22:31.739Z,29.90
2019-01-03T20:24:59.566Z,30.00
2019-01-03T20:27:27.313Z,30.10
2019-01-03T20:29:55.035Z,30.10
2019-01-03T20:32:22.775Z,30.20
2019-01-03T20:34:50.530Z,30.20
2019-01-03T20:37:18.339Z,30.30
2019-01-03T20:39:46.062Z,30.30
2019-01-03T20:42:13.822Z,30.30
2019-01-03T20:44:41.498Z,30.20
2019-01-03T20:47:09.203Z,30.30
2019-01-03T20:49:36.929Z,30.30
2019-01-03T20:52:04.621Z,30.30
2019-01-03T20:54:32.327Z,30.20
2019-01-03T20:57:02.607Z,30.30
2019-01-03T20:59:30.370Z,30.30
2019-01-03T21:01:58.144Z,30.40
2019-01-03T21:04:25.808Z,30.40
2019-01-03T21:06:53.516Z,30.50
2019-01-03T21:09:21.246Z,30.60
2019-01-03T21:11:48.904Z,30.60
2019-01-03T21:14:16.627Z,30.70
2019-01-03T21:16:44.277Z,30.60
2019-01-03T21:19:11.884Z,31.40
2019-01-03T21:21:39.582Z,30.80
2019-01-03T21:24:07.209Z,30.90
2019-01-03T21:26:36.594Z,31.00
2019-01-03T21:29:04.206Z,30.80
2019-01-03T21:31:31.804Z,30.90
2019-01-03T21:33:59.474Z,30.80
2019-01-03T21:36:27.092Z,30.90
2019-01-03T21:38:54.764Z,30.80
2019-01-03T21:41:22.482Z,30.80
2019-01-03T21:43:50.150Z,30.70
2019-01-03T21:46:17.815Z,30.50
2019-01-03T21:48:45.551Z,30.70
2019-01-03T21:51:13.210Z,30.60
2019-01-03T21:53:40.841Z,30.60
2019-01-03T21:56:09.412Z,30.70
2019-01-03T21:58:37.113Z,30.70
2019-01-03T22:01:04.851Z,30.80
2019-01-03T22:03:32.536Z,30.90
2019-01-03T22:06:00.227Z,30.90
2019-01-03T22:08:27.949Z,30.80
2019-01-03T22:10:55.651Z,31.00
2019-01-03T22:13:23.322Z,32.00
2019-01-03T22:15:51.028Z,31.60
2019-01-03T22:18:18.754Z,31.70
2019-01-03T22:20:46.383Z,31.70
2019-01-03T22:23:14.210Z,32.50
2019-01-03T22:25:42.048Z,31.80
2019-01-03T22:28:09.709Z,31.90
2019-01-03T22:30:37.776Z,31.80
2019-01-03T22:33:07.264Z,31.80
2019-01-03T22:35:39.774Z,32.00
2019-01-03T22:38:07.410Z,32.10
2019-01-03T22:40:36.263Z,32.20
2019-01-03T22:43:03.872Z,32.40
2019-01-03T22:45:31.501Z,32.60
2019-01-03T22:47:59.377Z,32.80
2019-01-03T22:50:27.058Z,32.90
2019-01-03T22:52:54.749Z,32.70
2019-01-03T22:55:22.397Z,32.80
2019-01-03T22:57:50.017Z,32.70
2019-01-03T23:00:31.518Z,32.80
2019-01-03T23:02:59.166Z,32.60
2019-01-03T23:05:26.771Z,32.90
2019-01-03T23:07:54.446Z,33.10
2019-01-03T23:10:22.114Z,33.10
2019-01-03T23:12:49.785Z,33.30
2019-01-03T23:15:17.516Z,33.40
2019-01-03T23:17:45.174Z,33.50
2019-01-03T23:20:12.774Z,33.50
2019-01-03T23:22:40.423Z,33.40
2019-01-03T23:25:08.020Z,33.60
2019-01-03T23:27:35.606Z,34.20
2019-01-03T23:30:03.571Z,33.50
2019-01-03T23:32:31.243Z,33.60
2019-01-03T23:34:58.919Z,33.50
2019-01-03T23:37:26.570Z,33.50
2019-01-03T23:39:54.284Z,33.50
2019-01-03T23:42:21.913Z,33.50
2019-01-03T23:45:07.749Z,33.50
2019-01-03T23:47:35.399Z,33.50
2019-01-03T23:50:03.388Z,33.50
2019-01-03T23:52:31.023Z,33.50
2019-01-03T23:54:58.631Z,33.60
2019-01-03T23:57:26.240Z,33.50
2019-01-03T23:59:53.907Z,33.50
